createdAt,value
2023-02-18T00:02:01.878Z,0
2023-02-18T00:07:03.584Z,0
2023-02-18T00:12:05.238Z,0
2023-02-18T00:17:07.127Z,0
2023-02-18T00:22:09.012Z,0
2023-02-18T00:27:10.656Z,0
2023-02-18T00:32:12.384Z,0
2023-02-18T00:37:14.189Z,0
2023-02-18T00:42:16.086Z,0
2023-02-18T00:47:17.778Z,0
2023-02-18T00:52:19.467Z,0
2023-02-18T00:57:21.317Z,0
2023-02-18T01:02:22.914Z,0
2023-02-18T01:07:24.587Z,0
2023-02-18T01:12:26.276Z,0
2023-02-18T01:17:27.929Z,0
2023-02-18T01:22:29.640Z,0
2023-02-18T01:27:32.022Z,61544
2023-02-18T01:32:33.723Z,61544
2023-02-18T01:37:35.646Z,61544
2023-02-18T01:42:37.281Z,61544
2023-02-18T01:47:39.148Z,61544
2023-02-18T01:52:41.036Z,61544
2023-02-18T01:57:42.664Z,61544
2023-02-18T02:02:44.509Z,61544
2023-02-18T02:07:46.111Z,0
2023-02-18T02:12:47.772Z,61544
2023-02-18T02:17:49.365Z,61544
2023-02-18T02:22:50.977Z,61544
2023-02-18T02:27:52.662Z,61544
2023-02-18T02:32:54.500Z,61544
2023-02-18T02:37:56.179Z,61544
2023-02-18T02:42:57.916Z,61544
2023-02-18T02:47:59.620Z,61544
2023-02-18T02:53:01.451Z,0
2023-02-18T02:58:03.430Z,61544
2023-02-18T03:03:05.130Z,0
2023-02-18T03:08:06.898Z,0
2023-02-18T03:13:08.542Z,0
2023-02-18T03:18:10.210Z,0
2023-02-18T03:23:11.934Z,61544
2023-02-18T03:28:13.569Z,0
2023-02-18T03:33:15.265Z,0
2023-02-18T03:38:17.008Z,0
2023-02-18T03:43:18.827Z,0
2023-02-18T03:48:20.526Z,0
2023-02-18T03:53:22.340Z,0
2023-02-18T03:58:23.944Z,0
2023-02-18T04:03:25.737Z,61544
2023-02-18T04:08:27.350Z,0
2023-02-18T04:13:29.056Z,61544
2023-02-18T04:18:30.665Z,20477.33333
2023-02-18T04:23:32.256Z,20477.33333
2023-02-18T04:28:33.921Z,30744
2023-02-18T04:33:35.633Z,6104
2023-02-18T04:38:37.559Z,6788.44444
2023-02-18T04:43:39.241Z,8744
2023-02-18T04:48:41.212Z,3366.22222
2023-02-18T04:53:43.046Z,3794
2023-02-18T04:58:44.708Z,10210.66667
2023-02-18T05:03:46.517Z,15344
2023-02-18T05:08:48.347Z,15344
2023-02-18T05:13:50.026Z,2744
2023-02-18T05:18:51.703Z,5077.33333
2023-02-18T05:23:53.338Z,8744
2023-02-18T05:28:54.971Z,10210.66667
2023-02-18T05:33:56.660Z,1410.66667
2023-02-18T05:38:58.434Z,836.75362
2023-02-18T05:44:00.096Z,2408
2023-02-18T05:49:01.793Z,3366.22222
2023-02-18T05:54:03.499Z,20477.33333
2023-02-18T05:59:05.145Z,10210.66667
2023-02-18T06:04:07.030Z,10210.66667
2023-02-18T06:09:08.659Z,8744
2023-02-18T06:14:10.333Z,7644
2023-02-18T06:19:11.978Z,8744
2023-02-18T06:24:13.634Z,61544
2023-02-18T06:29:15.252Z,61544
2023-02-18T06:34:16.915Z,30744
2023-02-18T06:39:18.600Z,30744
2023-02-18T06:44:20.166Z,20477.33333
2023-02-18T06:49:21.805Z,61544
2023-02-18T06:54:23.420Z,8744
2023-02-18T06:59:25.002Z,7644
2023-02-18T07:04:26.774Z,30744
2023-02-18T07:09:28.509Z,15344
2023-02-18T07:14:30.155Z,30744
2023-02-18T07:19:31.802Z,20477.33333
2023-02-18T07:24:33.520Z,10210.66667
2023-02-18T07:29:35.208Z,4344
2023-02-18T07:34:36.909Z,3567.52941
2023-02-18T07:39:38.532Z,3794
2023-02-18T07:44:40.206Z,3567.52941
2023-02-18T07:49:41.835Z,1755.76471
2023-02-18T07:54:43.604Z,849.88235
2023-02-18T07:59:45.212Z,2744
2023-02-18T08:04:47.032Z,8744
2023-02-18T08:09:48.736Z,6104
2023-02-18T08:14:50.418Z,5544
2023-02-18T08:19:52.116Z,6788.44444
2023-02-18T08:24:53.795Z,6104
2023-02-18T08:29:55.488Z,3186.10526
2023-02-18T08:34:57.175Z,3794
2023-02-18T08:39:58.905Z,15344
2023-02-18T08:45:00.569Z,2744
2023-02-18T08:50:02.247Z,4682.46154
2023-02-18T08:55:03.868Z,12264
2023-02-18T09:00:05.539Z,30744
2023-02-18T09:05:07.202Z,30744
2023-02-18T09:10:08.861Z,30744
2023-02-18T09:15:10.563Z,30744
2023-02-18T09:20:12.200Z,20477.33333
2023-02-18T09:25:13.837Z,12264
2023-02-18T09:30:15.766Z,5544
2023-02-18T09:35:17.494Z,6104
2023-02-18T09:40:19.190Z,3794
2023-02-18T09:45:20.874Z,5077.33333
2023-02-18T09:50:23.227Z,4344
2023-02-18T09:55:24.851Z,2622.26087
2023-02-18T10:00:26.442Z,4050.66667
2023-02-18T10:05:28.291Z,10210.66667
2023-02-18T10:10:29.941Z,30744
2023-02-18T10:15:31.566Z,20477.33333
2023-02-18T10:20:33.371Z,6788.44444
2023-02-18T10:25:35.117Z,4344
2023-02-18T10:30:36.818Z,6104
2023-02-18T10:35:38.440Z,12264
2023-02-18T10:40:40.206Z,15344
2023-02-18T10:45:41.884Z,10210.66667
2023-02-18T10:50:43.504Z,6788.44444
2023-02-18T10:55:45.167Z,7644
2023-02-18T11:00:46.846Z,6104
2023-02-18T11:05:48.470Z,10210.66667
2023-02-18T11:10:50.174Z,30744
2023-02-18T11:15:51.911Z,30744
2023-02-18T11:20:53.545Z,15344
2023-02-18T11:25:55.196Z,6788.44444
2023-02-18T11:30:56.882Z,12264
2023-02-18T11:35:58.605Z,7644
2023-02-18T11:41:00.245Z,10210.66667
2023-02-18T11:46:01.939Z,4344
2023-02-18T11:51:04.811Z,4050.66667
2023-02-18T11:56:07.473Z,2622.26087
2023-02-18T12:01:09.444Z,1704
2023-02-18T12:06:11.300Z,5077.33333
2023-02-18T12:11:12.963Z,4050.66667
2023-02-18T12:16:14.698Z,3567.52941
2023-02-18T12:21:16.353Z,5544
2023-02-18T12:26:17.940Z,6788.44444
2023-02-18T12:31:19.664Z,8744
2023-02-18T12:36:21.331Z,7644
2023-02-18T12:41:23.002Z,7644
2023-02-18T12:46:24.601Z,1084.74074
2023-02-18T12:51:26.841Z,1344
2023-02-18T12:56:29.443Z,953.83607
2023-02-18T13:01:31.125Z,2313.23077
2023-02-18T13:06:33.035Z,2068.13793
2023-02-18T13:11:34.873Z,2622.26087
2023-02-18T13:16:36.607Z,1869
2023-02-18T13:21:38.277Z,2408
2023-02-18T13:26:39.962Z,1810.66667
2023-02-18T13:31:41.863Z,1523.48718
2023-02-18T13:36:43.593Z,2313.23077
2023-02-18T13:41:45.231Z,5077.33333
2023-02-18T13:46:46.894Z,3794
2023-02-18T13:51:48.770Z,5077.33333
2023-02-18T13:56:50.450Z,1755.76471
2023-02-18T14:01:52.140Z,836.75362
2023-02-18T14:06:54.024Z,686.16867
2023-02-18T14:11:55.724Z,863.40299
2023-02-18T14:16:57.357Z,863.40299
2023-02-18T14:21:58.978Z,1044
2023-02-18T14:27:00.618Z,2744
2023-02-18T14:32:02.583Z,2313.23077
2023-02-18T14:37:04.299Z,2225.48148
2023-02-18T14:42:05.963Z,1997.33333
2023-02-18T14:47:07.644Z,3366.22222
2023-02-18T14:52:09.366Z,5077.33333
2023-02-18T14:57:11.035Z,5544
2023-02-18T15:02:12.697Z,12264
2023-02-18T15:07:14.305Z,5077.33333
2023-02-18T15:12:15.872Z,1810.66667
2023-02-18T15:17:17.496Z,1997.33333
2023-02-18T15:22:19.175Z,5544
2023-02-18T15:27:20.811Z,1608.86486
2023-02-18T15:32:22.596Z,560
2023-02-18T15:37:24.493Z,787.83562
2023-02-18T15:42:26.382Z,509.13761
2023-02-18T15:47:28.102Z,1151.84314
2023-02-18T15:52:29.960Z,1997.33333
2023-02-18T15:57:31.690Z,1755.76471
2023-02-18T16:02:33.312Z,2144
2023-02-18T16:07:35.016Z,2225.48148
2023-02-18T16:12:36.914Z,1869
2023-02-18T16:17:38.584Z,2622.26087
2023-02-18T16:22:40.313Z,3567.52941
2023-02-18T16:27:41.994Z,15344
2023-02-18T16:32:43.769Z,61544
2023-02-18T16:37:45.538Z,61544
2023-02-18T16:42:47.321Z,61544
2023-02-18T16:47:48.980Z,61544
2023-02-18T16:52:51.341Z,61544
2023-02-18T16:57:53.133Z,61544
2023-02-18T17:02:54.859Z,61544
2023-02-18T17:07:56.512Z,61544
2023-02-18T17:12:58.185Z,61544
2023-02-18T17:17:59.886Z,61544
2023-02-18T17:23:01.480Z,61544
2023-02-18T17:28:03.307Z,0
2023-02-18T17:33:05.034Z,0
2023-02-18T17:38:07.642Z,0
2023-02-18T17:43:09.359Z,61544
2023-02-18T17:48:11.009Z,0
2023-02-18T17:53:12.651Z,0
2023-02-18T17:58:14.395Z,0
2023-02-18T18:03:16.052Z,0
2023-02-18T18:08:17.813Z,0
2023-02-18T18:13:19.485Z,0
2023-02-18T18:18:21.053Z,0
2023-02-18T18:23:22.791Z,0
2023-02-18T18:28:24.484Z,0
2023-02-18T18:33:26.215Z,0
2023-02-18T18:38:27.912Z,0
2023-02-18T18:43:32.500Z,-61656
2023-02-18T18:48:34.671Z,-61656
2023-02-18T18:53:36.513Z,-61656
2023-02-18T18:58:38.666Z,-61656
2023-02-18T19:03:40.304Z,-61656
2023-02-18T19:08:41.986Z,-61656
2023-02-18T19:13:43.715Z,-61656
2023-02-18T19:18:45.381Z,-61656
2023-02-18T19:23:46.994Z,-61656
2023-02-18T19:28:48.663Z,-61656
2023-02-18T19:33:50.755Z,-61656
2023-02-18T19:38:52.673Z,-61656
2023-02-18T19:43:54.649Z,-61656
2023-02-18T19:48:56.435Z,-61656
2023-02-18T19:53:58.121Z,-61656
2023-02-18T19:58:59.796Z,-30856
2023-02-18T20:04:02.037Z,-61656
2023-02-18T20:09:03.779Z,-61656
2023-02-18T20:14:05.374Z,-61656
2023-02-18T20:19:07.190Z,-61656
2023-02-18T20:24:09.071Z,-61656
2023-02-18T20:29:10.911Z,-61656
2023-02-18T20:34:12.624Z,-61656
2023-02-18T20:39:16.387Z,-61656
2023-02-18T20:44:18.464Z,-61656
2023-02-18T20:49:20.137Z,-61656
2023-02-18T20:54:21.835Z,-61656
2023-02-18T20:59:23.544Z,-61656
2023-02-18T21:04:25.466Z,-61656
2023-02-18T21:09:27.044Z,-61656
2023-02-18T21:14:28.653Z,-61656
2023-02-18T21:19:30.269Z,-61656
2023-02-18T21:24:32.124Z,-61656
2023-02-18T21:29:33.816Z,-61656
2023-02-18T21:34:35.415Z,-61656
2023-02-18T21:39:37.084Z,-61656
2023-02-18T21:44:42.598Z,-61656
2023-02-18T21:49:44.503Z,-61656
2023-02-18T21:54:46.219Z,0
2023-02-18T21:59:47.924Z,0
2023-02-18T22:04:49.663Z,-61656
2023-02-18T22:09:51.490Z,-61656
2023-02-18T22:14:53.114Z,-61656
2023-02-18T22:19:54.773Z,-61656
2023-02-18T22:24:56.721Z,-61656
2023-02-18T22:29:58.427Z,0
2023-02-18T22:35:00.149Z,0
2023-02-18T22:40:01.768Z,0
2023-02-18T22:45:03.387Z,0
2023-02-18T22:50:05.145Z,0
2023-02-18T22:55:06.759Z,-61656
2023-02-18T23:00:08.639Z,0
2023-02-18T23:05:10.266Z,0
2023-02-18T23:10:11.878Z,0
2023-02-18T23:15:14.247Z,0
2023-02-18T23:20:15.894Z,-61656
2023-02-18T23:25:17.542Z,-61656
2023-02-18T23:30:19.290Z,-61656
2023-02-18T23:35:20.985Z,-61656
2023-02-18T23:40:22.674Z,0
2023-02-18T23:45:24.306Z,0
2023-02-18T23:50:25.981Z,0
2023-02-18T23:55:27.618Z,0
